Ana Sayfa
METAR-TAF:

METAR-TAF

Havaalanları :

Güvercinlik Havalimanı

Ankara Güvercinlik, Türkiye

Enlem: 39-56N, Boylam: 032-45E, yükseklik: 819 m

METAR: eksik

Saat: 18:51 (15:51 UTC)

Tahmin

Rapor saat 13:40 UTC de 2 saat ve 11 dakika önce yapıldı.
Ayın 23'si saat 15 UTC'den ayın 23'si saat 24 UTC'ye kadar geçerli Tahmin
Rüzgar değişken yönden 2 kt
Görüş mesafesi 10 km veya daha fazla
4000 ft yükseklikte parçalı bulutlu
10000 ft yükseklikte parçalı çok bulutlu
Dönüşüyor
ayın 23'si saat 15 UTC'den ayın 23'si saat 17 UTC'ye kadar
Görüş mesafesi 10 km veya daha fazla
1500 m altında bulut yok ve kümülonimbus yok
Dönüşüyor
ayın 23'si saat 19 UTC'den ayın 23'si saat 21 UTC'ye kadar
4000 ft yükseklikte parçalı bulutlu
10000 ft yükseklikte parçalı çok bulutlu

TAF: LTAB 231340Z 2315/2324 VRB02KT 9999 SCT040 BKN100 BECMG 2315/2317 CAVOK BECMG 2319/2321 SCT040 BKN100

4.000'den fazla havaalanı için hava durumu gözlemleri ve tahminleri (METAR ve TAF raporları).

Kullanılabilir istasyonlar harita üzerinde sarı ve kırmızı noktalarla gösterilir.

İstasyonun adını görmek için fareyi noktanın üzerinde gezdirin.

Sonrasında hava gözlem ve tahminlerini görmek için tıklayın.

Haritayı değiştirmek için: yaklaştırmak için siyah artı işaretli yeşil düğmeye ve uzaklaştırmak için de eksi işaretli düğmeye hızla tıklayın; bitişik haritalar için yeşil okları kullanın.


METAR-TAF: